sensor_id;sensor_type;location;lat;lon;timestamp;pressure;altitude;pressure_sealevel;temperature;humidity
58757;BME280;44527;47.460;19.016;2023-02-13T00:03:01;102450.72;;;0.23;88.20
58757;BME280;44527;47.460;19.016;2023-02-13T00:06:04;102445.44;;;0.14;87.65
58757;BME280;44527;47.460;19.016;2023-02-13T00:09:06;102441.06;;;0.04;88.34
58757;BME280;44527;47.460;19.016;2023-02-13T00:12:12;102448.78;;;0.04;88.04
58757;BME280;44527;47.460;19.016;2023-02-13T00:15:14;102450.37;;;-0.07;87.63
58757;BME280;44527;47.460;19.016;2023-02-13T00:18:17;102452.84;;;-0.18;88.22
58757;BME280;44527;47.460;19.016;2023-02-13T00:21:20;102450.22;;;-0.19;87.97
58757;BME280;44527;47.460;19.016;2023-02-13T00:24:23;102453.63;;;-0.24;88.46
58757;BME280;44527;47.460;19.016;2023-02-13T00:27:25;102462.16;;;-0.28;88.77
58757;BME280;44527;47.460;19.016;2023-02-13T00:30:28;102467.44;;;-0.18;88.92
58757;BME280;44527;47.460;19.016;2023-02-13T00:33:30;102469.69;;;-0.43;90.28
58757;BME280;44527;47.460;19.016;2023-02-13T00:36:33;102471.63;;;-0.30;89.85
58757;BME280;44527;47.460;19.016;2023-02-13T00:39:35;102459.25;;;-0.54;90.12
58757;BME280;44527;47.460;19.016;2023-02-13T00:42:38;102459.03;;;-0.67;89.65
58757;BME280;44527;47.460;19.016;2023-02-13T00:45:41;102460.59;;;-0.80;90.14
58757;BME280;44527;47.460;19.016;2023-02-13T00:48:44;102462.66;;;-0.56;89.27
58757;BME280;44527;47.460;19.016;2023-02-13T00:51:47;102458.47;;;-0.48;89.23
58757;BME280;44527;47.460;19.016;2023-02-13T00:54:49;102464.47;;;-0.51;89.04
58757;BME280;44527;47.460;19.016;2023-02-13T00:57:51;102469.66;;;-0.48;89.19
58757;BME280;44527;47.460;19.016;2023-02-13T01:00:55;102455.94;;;-0.43;89.86
58757;BME280;44527;47.460;19.016;2023-02-13T01:03:59;102454.13;;;-0.51;90.22
58757;BME280;44527;47.460;19.016;2023-02-13T01:07:02;102450.41;;;-0.71;89.76
58757;BME280;44527;47.460;19.016;2023-02-13T01:10:09;102449.44;;;-0.79;88.77
58757;BME280;44527;47.460;19.016;2023-02-13T01:13:14;102444.16;;;-0.88;88.96
58757;BME280;44527;47.460;19.016;2023-02-13T01:16:19;102443.97;;;-1.52;92.75
58757;BME280;44527;47.460;19.016;2023-02-13T01:19:22;102441.72;;;-1.34;93.76
58757;BME280;44527;47.460;19.016;2023-02-13T01:22:26;102431.91;;;-1.02;92.47
58757;BME280;44527;47.460;19.016;2023-02-13T01:25:28;102427.13;;;-0.77;90.84
58757;BME280;44527;47.460;19.016;2023-02-13T01:28:32;102426.25;;;-0.79;90.04
58757;BME280;44527;47.460;19.016;2023-02-13T01:31:39;102426.16;;;-0.84;91.09
58757;BME280;44527;47.460;19.016;2023-02-13T01:34:41;102438.38;;;-0.72;90.82
58757;BME280;44527;47.460;19.016;2023-02-13T01:37:46;102432.41;;;-0.70;90.35
58757;BME280;44527;47.460;19.016;2023-02-13T01:40:51;102431.50;;;-0.72;90.24
58757;BME280;44527;47.460;19.016;2023-02-13T01:43:59;102420.31;;;-0.71;89.77
58757;BME280;44527;47.460;19.016;2023-02-13T01:47:03;102424.62;;;-0.73;89.53
58757;BME280;44527;47.460;19.016;2023-02-13T01:53:17;102426.25;;;-0.79;90.45
58757;BME280;44527;47.460;19.016;2023-02-13T01:59:56;102425.38;;;-0.78;90.14
58757;BME280;44527;47.460;19.016;2023-02-13T02:03:14;102428.06;;;-0.72;89.70
58757;BME280;44527;47.460;19.016;2023-02-13T02:06:35;102426.19;;;-0.82;89.81
58757;BME280;44527;47.460;19.016;2023-02-13T02:09:41;102418.50;;;-0.78;89.99
58757;BME280;44527;47.460;19.016;2023-02-13T02:13:05;102413.28;;;-0.84;89.97
58757;BME280;44527;47.460;19.016;2023-02-13T02:16:08;102409.63;;;-0.98;90.16
58757;BME280;44527;47.460;19.016;2023-02-13T02:19:33;102419.19;;;-0.91;89.25
58757;BME280;44527;47.460;19.016;2023-02-13T02:26:31;102413.63;;;-1.17;90.33
58757;BME280;44527;47.460;19.016;2023-02-13T02:46:19;102417.38;;;-0.97;89.86
58757;BME280;44527;47.460;19.016;2023-02-13T02:49:26;102419.09;;;-0.97;88.73
58757;BME280;44527;47.460;19.016;2023-02-13T02:53:21;102419.78;;;-1.07;88.14
58757;BME280;44527;47.460;19.016;2023-02-13T02:56:33;102405.94;;;-1.16;87.04
58757;BME280;44527;47.460;19.016;2023-02-13T02:59:39;102420.91;;;-1.46;87.58
58757;BME280;44527;47.460;19.016;2023-02-13T03:03:04;102420.22;;;-1.86;91.11
58757;BME280;44527;47.460;19.016;2023-02-13T03:06:59;102417.06;;;-1.71;89.64
58757;BME280;44527;47.460;19.016;2023-02-13T03:10:11;102414.47;;;-1.70;90.20
58757;BME280;44527;47.460;19.016;2023-02-13T03:13:46;102410.22;;;-2.15;92.98
58757;BME280;44527;47.460;19.016;2023-02-13T03:16:50;102407.56;;;-2.19;93.90
58757;BME280;44527;47.460;19.016;2023-02-13T03:24:34;102410.06;;;-1.77;93.05
58757;BME280;44527;47.460;19.016;2023-02-13T03:27:57;102413.03;;;-1.54;91.67
58757;BME280;44527;47.460;19.016;2023-02-13T03:35:03;102410.72;;;-1.40;89.63
58757;BME280;44527;47.460;19.016;2023-02-13T03:42:02;102406.16;;;-1.55;88.45
58757;BME280;44527;47.460;19.016;2023-02-13T03:45:13;102410.25;;;-1.68;87.86
58757;BME280;44527;47.460;19.016;2023-02-13T03:48:40;102400.53;;;-1.81;87.83
58757;BME280;44527;47.460;19.016;2023-02-13T03:52:08;102400.13;;;-2.04;89.25
58757;BME280;44527;47.460;19.016;2023-02-13T03:55:21;102402.87;;;-2.80;94.77
58757;BME280;44527;47.460;19.016;2023-02-13T03:58:49;102402.03;;;-2.79;96.63
58757;BME280;44527;47.460;19.016;2023-02-13T04:02:14;102401.44;;;-2.24;94.66
58757;BME280;44527;47.460;19.016;2023-02-13T04:05:24;102410.56;;;-1.98;91.99
58757;BME280;44527;47.460;19.016;2023-02-13T04:08:28;102401.50;;;-1.76;91.02
58757;BME280;44527;47.460;19.016;2023-02-13T04:11:36;102400.53;;;-1.82;90.61
58757;BME280;44527;47.460;19.016;2023-02-13T04:14:54;102402.72;;;-2.02;91.90
58757;BME280;44527;47.460;19.016;2023-02-13T04:18:21;102409.22;;;-2.21;93.08
58757;BME280;44527;47.460;19.016;2023-02-13T04:21:24;102409.00;;;-2.34;94.18
58757;BME280;44527;47.460;19.016;2023-02-13T04:24:27;102408.59;;;-2.10;92.42
58757;BME280;44527;47.460;19.016;2023-02-13T04:27:30;102404.53;;;-1.98;91.80
58757;BME280;44527;47.460;19.016;2023-02-13T04:30:33;102399.97;;;-2.13;91.40
58757;BME280;44527;47.460;19.016;2023-02-13T04:33:40;102399.34;;;-2.01;89.53
58757;BME280;44527;47.460;19.016;2023-02-13T04:36:44;102400.09;;;-2.05;89.67
58757;BME280;44527;47.460;19.016;2023-02-13T04:39:47;102399.28;;;-2.04;89.37
58757;BME280;44527;47.460;19.016;2023-02-13T04:42:49;102399.44;;;-1.95;88.49
58757;BME280;44527;47.460;19.016;2023-02-13T04:45:51;102399.28;;;-2.04;88.90
58757;BME280;44527;47.460;19.016;2023-02-13T04:48:54;102395.25;;;-2.34;90.94
58757;BME280;44527;47.460;19.016;2023-02-13T04:51:56;102401.75;;;-2.51;92.48
58757;BME280;44527;47.460;19.016;2023-02-13T04:54:59;102398.25;;;-2.55;92.96
58757;BME280;44527;47.460;19.016;2023-02-13T04:58:01;102394.91;;;-2.52;93.39
58757;BME280;44527;47.460;19.016;2023-02-13T05:01:12;102393.22;;;-2.50;92.72
58757;BME280;44527;47.460;19.016;2023-02-13T05:04:14;102393.91;;;-2.59;93.92
58757;BME280;44527;47.460;19.016;2023-02-13T05:07:19;102386.53;;;-2.82;94.14
58757;BME280;44527;47.460;19.016;2023-02-13T05:10:21;102388.78;;;-2.97;95.67
58757;BME280;44527;47.460;19.016;2023-02-13T05:13:24;102388.78;;;-2.97;96.79
58757;BME280;44527;47.460;19.016;2023-02-13T05:16:26;102380.41;;;-2.90;96.60
58757;BME280;44527;47.460;19.016;2023-02-13T05:19:29;102380.97;;;-2.62;95.31
58757;BME280;44527;47.460;19.016;2023-02-13T05:22:32;102378.84;;;-2.41;92.20
58757;BME280;44527;47.460;19.016;2023-02-13T05:25:53;102381.00;;;-2.61;92.57
58757;BME280;44527;47.460;19.016;2023-02-13T05:28:55;102383.16;;;-2.40;91.61
58757;BME280;44527;47.460;19.016;2023-02-13T05:32:17;102382.44;;;-2.33;90.24
58757;BME280;44527;47.460;19.016;2023-02-13T05:35:22;102370.03;;;-2.52;90.31
58757;BME280;44527;47.460;19.016;2023-02-13T05:38:25;102366.41;;;-2.62;91.54
58757;BME280;44527;47.460;19.016;2023-02-13T05:41:27;102375.66;;;-2.27;89.04
58757;BME280;44527;47.460;19.016;2023-02-13T05:44:31;102380.19;;;-2.60;90.46
58757;BME280;44527;47.460;19.016;2023-02-13T05:47:33;102384.09;;;-2.77;92.08
58757;BME280;44527;47.460;19.016;2023-02-13T05:50:36;102375.31;;;-2.46;91.97
58757;BME280;44527;47.460;19.016;2023-02-13T05:53:38;102384.03;;;-2.79;94.32
58757;BME280;44527;47.460;19.016;2023-02-13T05:56:41;102388.50;;;-2.71;95.44
58757;BME280;44527;47.460;19.016;2023-02-13T05:59:43;102384.97;;;-2.34;92.71
58757;BME280;44527;47.460;19.016;2023-02-13T06:02:46;102384.44;;;-2.18;90.54
58757;BME280;44527;47.460;19.016;2023-02-13T06:05:51;102383.72;;;-2.11;89.62
58757;BME280;44527;47.460;19.016;2023-02-13T06:08:53;102386.94;;;-2.21;88.03
58757;BME280;44527;47.460;19.016;2023-02-13T06:11:56;102388.53;;;-2.27;88.54
58757;BME280;44527;47.460;19.016;2023-02-13T06:14:58;102399.72;;;-2.66;90.70
58757;BME280;44527;47.460;19.016;2023-02-13T06:18:01;102410.00;;;-2.66;90.98
58757;BME280;44527;47.460;19.016;2023-02-13T06:21:06;102409.19;;;-2.65;91.59
58757;BME280;44527;47.460;19.016;2023-02-13T06:24:09;102425.28;;;-2.33;90.52
58757;BME280;44527;47.460;19.016;2023-02-13T06:27:12;102422.63;;;-2.38;90.39
58757;BME280;44527;47.460;19.016;2023-02-13T06:30:15;102420.25;;;-2.27;90.34
58757;BME280;44527;47.460;19.016;2023-02-13T06:33:18;102429.53;;;-1.93;89.24
58757;BME280;44527;47.460;19.016;2023-02-13T06:36:23;102423.91;;;-1.70;87.36
58757;BME280;44527;47.460;19.016;2023-02-13T06:39:26;102437.38;;;-1.85;86.88
58757;BME280;44527;47.460;19.016;2023-02-13T06:42:29;102425.69;;;-1.66;86.44
58757;BME280;44527;47.460;19.016;2023-02-13T06:45:31;102426.81;;;-1.50;85.31
58757;BME280;44527;47.460;19.016;2023-02-13T06:48:34;102430.56;;;-1.33;84.41
58757;BME280;44527;47.460;19.016;2023-02-13T06:51:37;102433.03;;;-1.39;85.24
58757;BME280;44527;47.460;19.016;2023-02-13T06:54:40;102426.63;;;-1.11;84.57
58757;BME280;44527;47.460;19.016;2023-02-13T06:57:49;102432.28;;;-0.77;82.55
58757;BME280;44527;47.460;19.016;2023-02-13T07:00:52;102433.41;;;-0.57;81.94
58757;BME280;44527;47.460;19.016;2023-02-13T07:03:55;102429.63;;;-0.16;80.46
58757;BME280;44527;47.460;19.016;2023-02-13T07:06:58;102425.88;;;0.35;78.14
58757;BME280;44527;47.460;19.016;2023-02-13T07:10:03;102423.69;;;0.84;76.16
58757;BME280;44527;47.460;19.016;2023-02-13T07:13:07;102439.44;;;1.16;74.74
58757;BME280;44527;47.460;19.016;2023-02-13T07:16:09;102443.00;;;1.33;73.74
58757;BME280;44527;47.460;19.016;2023-02-13T07:19:13;102433.37;;;1.12;74.61
58757;BME280;44527;47.460;19.016;2023-02-13T07:22:16;102435.00;;;1.00;75.00
58757;BME280;44527;47.460;19.016;2023-02-13T07:25:19;102434.97;;;0.92;76.33
58757;BME280;44527;47.460;19.016;2023-02-13T07:28:22;102436.72;;;0.98;76.19
58757;BME280;44527;47.460;19.016;2023-02-13T07:31:24;102431.53;;;0.98;76.66
58757;BME280;44527;47.460;19.016;2023-02-13T07:34:27;102431.44;;;0.82;78.03
58757;BME280;44527;47.460;19.016;2023-02-13T07:37:30;102431.47;;;0.88;78.47
58757;BME280;44527;47.460;19.016;2023-02-13T07:40:33;102431.56;;;0.99;79.11
58757;BME280;44527;47.460;19.016;2023-02-13T07:43:37;102432.63;;;1.30;78.32
58757;BME280;44527;47.460;19.016;2023-02-13T07:46:39;102437.84;;;1.38;78.08
58757;BME280;44527;47.460;19.016;2023-02-13T07:49:42;102443.00;;;1.36;78.40
58757;BME280;44527;47.460;19.016;2023-02-13T07:52:52;102446.47;;;1.40;78.81
58757;BME280;44527;47.460;19.016;2023-02-13T07:55:57;102446.59;;;1.68;78.17
58757;BME280;44527;47.460;19.016;2023-02-13T07:59:00;102453.50;;;1.63;77.94
58757;BME280;44527;47.460;19.016;2023-02-13T08:02:03;102455.22;;;1.60;78.83
58757;BME280;44527;47.460;19.016;2023-02-13T08:05:06;102458.75;;;1.82;79.04
58757;BME280;44527;47.460;19.016;2023-02-13T08:08:09;102447.59;;;2.05;77.93
58757;BME280;44527;47.460;19.016;2023-02-13T08:11:39;102457.13;;;2.07;76.96
58757;BME280;44527;47.460;19.016;2023-02-13T08:14:57;102454.56;;;2.12;77.76
58757;BME280;44527;47.460;19.016;2023-02-13T08:18:00;102462.41;;;2.58;75.94
58757;BME280;44527;47.460;19.016;2023-02-13T08:21:04;102444.25;;;2.66;75.11
58757;BME280;44527;47.460;19.016;2023-02-13T08:24:08;102447.72;;;2.80;73.64
58757;BME280;44527;47.460;19.016;2023-02-13T08:27:14;102443.37;;;3.02;72.97
58757;BME280;44527;47.460;19.016;2023-02-13T08:30:17;102443.41;;;3.01;72.58
58757;BME280;44527;47.460;19.016;2023-02-13T08:33:20;102440.72;;;3.36;70.65
58757;BME280;44527;47.460;19.016;2023-02-13T08:36:26;102445.88;;;3.48;70.86
58757;BME280;44527;47.460;19.016;2023-02-13T08:39:29;102444.00;;;3.82;68.55
58757;BME280;44527;47.460;19.016;2023-02-13T08:42:32;102433.59;;;3.93;67.38
58757;BME280;44527;47.460;19.016;2023-02-13T08:45:35;102430.94;;;4.05;66.54
58757;BME280;44527;47.460;19.016;2023-02-13T08:48:39;102433.53;;;4.02;64.95
58757;BME280;44527;47.460;19.016;2023-02-13T08:51:41;102438.66;;;4.14;65.74
58757;BME280;44527;47.460;19.016;2023-02-13T08:54:45;102431.69;;;4.23;64.37
58757;BME280;44527;47.460;19.016;2023-02-13T08:57:47;102426.47;;;4.29;64.66
58757;BME280;44527;47.460;19.016;2023-02-13T09:00:50;102433.44;;;4.21;64.48
58757;BME280;44527;47.460;19.016;2023-02-13T09:03:53;102436.03;;;4.24;63.86
58757;BME280;44527;47.460;19.016;2023-02-13T09:06:57;102437.78;;;4.19;63.36
58757;BME280;44527;47.460;19.016;2023-02-13T09:10:00;102440.37;;;4.20;64.09
58757;BME280;44527;47.460;19.016;2023-02-13T09:13:06;102434.31;;;4.18;64.36
58757;BME280;44527;47.460;19.016;2023-02-13T09:16:09;102433.37;;;4.30;63.89
58757;BME280;44527;47.460;19.016;2023-02-13T09:19:13;102431.50;;;4.53;64.33
58757;BME280;44527;47.460;19.016;2023-02-13T09:22:16;102433.16;;;4.59;62.49
58757;BME280;44527;47.460;19.016;2023-02-13T09:25:19;102434.84;;;4.66;62.13
58757;BME280;44527;47.460;19.016;2023-02-13T09:28:22;102431.22;;;4.86;62.93
58757;BME280;44527;47.460;19.016;2023-02-13T09:31:25;102449.28;;;5.02;60.34
58757;BME280;44527;47.460;19.016;2023-02-13T09:34:31;102438.03;;;4.96;61.46
58757;BME280;44527;47.460;19.016;2023-02-13T09:37:34;102437.94;;;5.08;61.33
58757;BME280;44527;47.460;19.016;2023-02-13T09:40:53;102434.28;;;5.26;60.24
58757;BME280;44527;47.460;19.016;2023-02-13T09:44:15;102443.75;;;5.35;60.36
58757;BME280;44527;47.460;19.016;2023-02-13T09:47:38;102429.94;;;5.28;59.55
58757;BME280;44527;47.460;19.016;2023-02-13T09:50:43;102433.25;;;5.41;60.12
58757;BME280;44527;47.460;19.016;2023-02-13T09:54:02;102428.62;;;5.66;59.31
58757;BME280;44527;47.460;19.016;2023-02-13T12:14:23;102279.28;;;7.53;56.05
58757;BME280;44527;47.460;19.016;2023-02-13T12:17:31;102283.75;;;7.49;57.32
58757;BME280;44527;47.460;19.016;2023-02-13T12:35:12;102263.53;;;7.95;56.93
58757;BME280;44527;47.460;19.016;2023-02-13T12:38:29;102251.44;;;7.91;56.37
58757;BME280;44527;47.460;19.016;2023-02-13T12:41:58;102248.88;;;7.88;56.51
58757;BME280;44527;47.460;19.016;2023-02-13T12:45:13;102248.38;;;8.07;55.97
58757;BME280;44527;47.460;19.016;2023-02-13T12:48:51;102232.00;;;8.01;55.84
58757;BME280;44527;47.460;19.016;2023-02-13T12:55:56;102225.97;;;7.97;56.99
58757;BME280;44527;47.460;19.016;2023-02-13T12:59:22;102220.28;;;8.16;56.77
58757;BME280;44527;47.460;19.016;2023-02-13T13:02:52;102212.09;;;8.29;56.51
58757;BME280;44527;47.460;19.016;2023-02-13T13:12:56;102205.16;;;8.60;55.76
58757;BME280;44527;47.460;19.016;2023-02-13T13:26:29;102204.81;;;9.03;55.70
58757;BME280;44527;47.460;19.016;2023-02-13T13:29:46;102199.22;;;9.14;55.83
58757;BME280;44527;47.460;19.016;2023-02-13T13:33:13;102197.44;;;9.16;55.53
58757;BME280;44527;47.460;19.016;2023-02-13T13:49:57;102197.22;;;9.50;54.40
58757;BME280;44527;47.460;19.016;2023-02-13T13:56:08;102184.84;;;9.27;54.13
58757;BME280;44527;47.460;19.016;2023-02-13T14:03:11;102187.13;;;9.10;55.13
58757;BME280;44527;47.460;19.016;2023-02-13T14:06:18;102182.94;;;9.04;55.91
58757;BME280;44527;47.460;19.016;2023-02-13T14:18:47;102186.69;;;8.95;55.94
58757;BME280;44527;47.460;19.016;2023-02-13T14:21:53;102191.28;;;8.87;57.39
58757;BME280;44527;47.460;19.016;2023-02-13T14:25:05;102186.00;;;8.89;56.78
58757;BME280;44527;47.460;19.016;2023-02-13T14:31:33;102195.41;;;8.66;57.24
58757;BME280;44527;47.460;19.016;2023-02-13T14:34:37;102204.47;;;8.53;58.31
58757;BME280;44527;47.460;19.016;2023-02-13T14:37:50;102201.66;;;8.28;59.69
58757;BME280;44527;47.460;19.016;2023-02-13T14:40:53;102201.28;;;8.09;60.50
58757;BME280;44527;47.460;19.016;2023-02-13T14:43:56;102200.97;;;8.20;60.41
58757;BME280;44527;47.460;19.016;2023-02-13T14:47:02;102201.59;;;7.97;60.78
58757;BME280;44527;47.460;19.016;2023-02-13T14:50:05;102212.38;;;7.85;61.02
58757;BME280;44527;47.460;19.016;2023-02-13T14:53:16;102199.66;;;7.69;61.79
58757;BME280;44527;47.460;19.016;2023-02-13T14:56:21;102206.50;;;7.75;62.41
58757;BME280;44527;47.460;19.016;2023-02-13T14:59:28;102209.13;;;7.75;62.05
58757;BME280;44527;47.460;19.016;2023-02-13T15:02:41;102204.22;;;7.61;62.62
58757;BME280;44527;47.460;19.016;2023-02-13T15:05:50;102195.09;;;7.42;63.58
58757;BME280;44527;47.460;19.016;2023-02-13T15:08:55;102196.72;;;7.47;63.97
58757;BME280;44527;47.460;19.016;2023-02-13T15:12:00;102196.37;;;7.24;64.60
58757;BME280;44527;47.460;19.016;2023-02-13T15:18:30;102196.06;;;6.99;66.04
58757;BME280;44527;47.460;19.016;2023-02-13T15:21:35;102200.44;;;6.97;66.22
58757;BME280;44527;47.460;19.016;2023-02-13T15:24:48;102205.03;;;6.85;66.77
58757;BME280;44527;47.460;19.016;2023-02-13T15:27:52;102203.78;;;7.03;66.06
58757;BME280;44527;47.460;19.016;2023-02-13T15:31:01;102207.56;;;6.90;66.59
58757;BME280;44527;47.460;19.016;2023-02-13T15:34:28;102211.97;;;6.86;66.81
58757;BME280;44527;47.460;19.016;2023-02-13T15:37:31;102208.38;;;6.92;66.76
58757;BME280;44527;47.460;19.016;2023-02-13T15:40:38;102209.97;;;6.98;66.68
58757;BME280;44527;47.460;19.016;2023-02-13T15:43:44;102196.91;;;6.99;66.34
58757;BME280;44527;47.460;19.016;2023-02-13T15:46:48;102197.75;;;7.01;66.47
58757;BME280;44527;47.460;19.016;2023-02-13T15:49:53;102197.88;;;6.95;66.63
58757;BME280;44527;47.460;19.016;2023-02-13T15:53:02;102192.47;;;7.03;66.16
58757;BME280;44527;47.460;19.016;2023-02-13T15:56:05;102197.69;;;7.04;66.29
58757;BME280;44527;47.460;19.016;2023-02-13T15:59:08;102195.28;;;6.95;66.69
58757;BME280;44527;47.460;19.016;2023-02-13T16:02:15;102197.13;;;6.90;66.61
58757;BME280;44527;47.460;19.016;2023-02-13T16:05:19;102194.44;;;6.91;66.55
58757;BME280;44527;47.460;19.016;2023-02-13T16:08:43;102201.59;;;6.83;67.10
58757;BME280;44527;47.460;19.016;2023-02-13T16:11:46;102203.56;;;6.74;67.32
58757;BME280;44527;47.460;19.016;2023-02-13T16:14:58;102207.69;;;6.82;66.97
58757;BME280;44527;47.460;19.016;2023-02-13T16:18:03;102209.37;;;6.85;66.64
58757;BME280;44527;47.460;19.016;2023-02-13T16:21:07;102223.34;;;6.84;66.84
58757;BME280;44527;47.460;19.016;2023-02-13T16:24:13;102208.25;;;6.98;66.34
58757;BME280;44527;47.460;19.016;2023-02-13T16:27:20;102208.38;;;6.92;66.80
58757;BME280;44527;47.460;19.016;2023-02-13T16:30:31;102209.44;;;6.82;67.13
58757;BME280;44527;47.460;19.016;2023-02-13T16:33:37;102206.91;;;6.79;67.16
58757;BME280;44527;47.460;19.016;2023-02-13T16:36:42;102203.91;;;6.55;67.88
58757;BME280;44527;47.460;19.016;2023-02-13T16:39:45;102199.00;;;6.40;68.65
58757;BME280;44527;47.460;19.016;2023-02-13T16:42:47;102196.69;;;6.23;69.41
58757;BME280;44527;47.460;19.016;2023-02-13T16:45:50;102204.72;;;6.12;69.85
58757;BME280;44527;47.460;19.016;2023-02-13T16:52:17;102194.41;;;6.06;70.57
58757;BME280;44527;47.460;19.016;2023-02-13T16:55:21;102189.63;;;5.79;71.19
58757;BME280;44527;47.460;19.016;2023-02-13T16:58:24;102194.19;;;5.63;72.53
58757;BME280;44527;47.460;19.016;2023-02-13T17:01:26;102191.78;;;5.52;73.13
58757;BME280;44527;47.460;19.016;2023-02-13T17:04:29;102195.28;;;5.51;73.21
58757;BME280;44527;47.460;19.016;2023-02-13T17:07:38;102190.94;;;5.50;73.50
58757;BME280;44527;47.460;19.016;2023-02-13T17:11:00;102189.28;;;5.46;74.20
58757;BME280;44527;47.460;19.016;2023-02-13T17:14:03;102176.22;;;5.47;74.03
58757;BME280;44527;47.460;19.016;2023-02-13T17:17:17;102176.06;;;5.57;73.92
58757;BME280;44527;47.460;19.016;2023-02-13T17:20:23;102164.63;;;5.67;73.58
58757;BME280;44527;47.460;19.016;2023-02-13T17:23:25;102154.06;;;5.76;73.38
58757;BME280;44527;47.460;19.016;2023-02-13T17:26:28;102164.50;;;5.74;73.27
58757;BME280;44527;47.460;19.016;2023-02-13T17:29:30;102160.13;;;5.76;73.20
58757;BME280;44527;47.460;19.016;2023-02-13T17:32:33;102159.00;;;5.93;72.70
58757;BME280;44527;47.460;19.016;2023-02-13T17:35:35;102162.47;;;5.90;73.04
58757;BME280;44527;47.460;19.016;2023-02-13T17:38:38;102150.28;;;5.92;73.00
58757;BME280;44527;47.460;19.016;2023-02-13T17:41:40;102163.47;;;5.85;72.95
58757;BME280;44527;47.460;19.016;2023-02-13T17:44:44;102156.47;;;5.87;72.86
58757;BME280;44527;47.460;19.016;2023-02-13T17:47:46;102154.72;;;5.87;72.91
58757;BME280;44527;47.460;19.016;2023-02-13T17:50:50;102154.81;;;5.81;73.03
58757;BME280;44527;47.460;19.016;2023-02-13T17:53:53;102151.44;;;5.76;73.25
58757;BME280;44527;47.460;19.016;2023-02-13T17:56:57;102144.81;;;5.58;73.81
58757;BME280;44527;47.460;19.016;2023-02-13T18:00:00;102137.16;;;5.47;74.08
58757;BME280;44527;47.460;19.016;2023-02-13T18:03:13;102127.72;;;5.40;74.23
58757;BME280;44527;47.460;19.016;2023-02-13T18:06:15;102129.63;;;5.29;74.74
58757;BME280;44527;47.460;19.016;2023-02-13T18:09:17;102127.22;;;5.17;75.00
58757;BME280;44527;47.460;19.016;2023-02-13T18:12:22;102129.84;;;5.14;75.25
58757;BME280;44527;47.460;19.016;2023-02-13T18:15:25;102128.41;;;4.94;75.84
58757;BME280;44527;47.460;19.016;2023-02-13T18:18:27;102115.78;;;4.67;76.89
58757;BME280;44527;47.460;19.016;2023-02-13T18:21:30;102113.41;;;4.48;77.87
58757;BME280;44527;47.460;19.016;2023-02-13T18:24:35;102120.63;;;4.26;78.91
58757;BME280;44527;47.460;19.016;2023-02-13T18:27:38;102113.84;;;4.11;80.16
58757;BME280;44527;47.460;19.016;2023-02-13T18:30:41;102116.38;;;4.16;80.48
58757;BME280;44527;47.460;19.016;2023-02-13T18:33:44;102108.66;;;4.11;80.64
58757;BME280;44527;47.460;19.016;2023-02-13T18:36:47;102111.44;;;3.91;81.44
58757;BME280;44527;47.460;19.016;2023-02-13T18:39:49;102105.53;;;3.77;82.45
58757;BME280;44527;47.460;19.016;2023-02-13T18:42:52;102106.38;;;3.79;83.09
58757;BME280;44527;47.460;19.016;2023-02-13T18:45:54;102099.66;;;3.57;84.01
58757;BME280;44527;47.460;19.016;2023-02-13T18:48:57;102099.75;;;3.48;84.99
58757;BME280;44527;47.460;19.016;2023-02-13T18:51:59;102091.13;;;3.44;85.77
58757;BME280;44527;47.460;19.016;2023-02-13T18:55:03;102092.97;;;3.30;86.19
58757;BME280;44527;47.460;19.016;2023-02-13T18:58:07;102080.06;;;3.22;87.66
58757;BME280;44527;47.460;19.016;2023-02-13T19:01:13;102084.44;;;3.14;88.61
58757;BME280;44527;47.460;19.016;2023-02-13T19:04:16;102098.31;;;3.13;88.79
58757;BME280;44527;47.460;19.016;2023-02-13T19:07:18;102087.91;;;3.11;88.68
58757;BME280;44527;47.460;19.016;2023-02-13T19:10:21;102093.12;;;3.08;88.99
58757;BME280;44527;47.460;19.016;2023-02-13T19:13:23;102086.25;;;2.99;89.42
58757;BME280;44527;47.460;19.016;2023-02-13T19:16:27;102081.94;;;3.02;90.05
58757;BME280;44527;47.460;19.016;2023-02-13T19:19:30;102087.94;;;3.10;90.42
58757;BME280;44527;47.460;19.016;2023-02-13T19:22:33;102082.75;;;3.08;90.90
58757;BME280;44527;47.460;19.016;2023-02-13T19:25:37;102093.03;;;3.20;90.50
58757;BME280;44527;47.460;19.016;2023-02-13T19:28:41;102099.25;;;3.01;92.03
58757;BME280;44527;47.460;19.016;2023-02-13T19:31:44;102097.47;;;3.08;91.64
58757;BME280;44527;47.460;19.016;2023-02-13T19:34:46;102096.62;;;3.03;91.62
58757;BME280;44527;47.460;19.016;2023-02-13T19:37:49;102097.59;;;2.91;92.57
58757;BME280;44527;47.460;19.016;2023-02-13T19:40:52;102093.25;;;2.90;91.91
58757;BME280;44527;47.460;19.016;2023-02-13T19:43:55;102090.69;;;2.85;93.03
58757;BME280;44527;47.460;19.016;2023-02-13T19:46:58;102090.66;;;2.87;93.12
58757;BME280;44527;47.460;19.016;2023-02-13T19:50:00;102085.56;;;2.76;92.99
58757;BME280;44527;47.460;19.016;2023-02-13T19:53:02;102089.81;;;2.88;93.58
58757;BME280;44527;47.460;19.016;2023-02-13T19:56:08;102095.81;;;2.93;95.63
58757;BME280;44527;47.460;19.016;2023-02-13T19:59:10;102094.81;;;3.14;95.30
58757;BME280;44527;47.460;19.016;2023-02-13T20:02:15;102085.09;;;3.42;93.93
58757;BME280;44527;47.460;19.016;2023-02-13T20:05:18;102072.81;;;3.58;92.91
58757;BME280;44527;47.460;19.016;2023-02-13T20:08:20;102071.81;;;3.74;91.52
58757;BME280;44527;47.460;19.016;2023-02-13T20:11:23;102072.53;;;3.87;90.90
58757;BME280;44527;47.460;19.016;2023-02-13T20:14:26;102078.41;;;4.07;89.55
58757;BME280;44527;47.460;19.016;2023-02-13T20:17:29;102059.09;;;4.25;88.03
58757;BME280;44527;47.460;19.016;2023-02-13T20:20:31;102054.75;;;4.27;87.31
58757;BME280;44527;47.460;19.016;2023-02-13T20:23:34;102057.28;;;4.33;86.63